sensor_id;sensor_type;location;lat;lon;timestamp;pressure;altitude;pressure_sealevel;temperature;humidity
52625;BME280;38519;52.540;13.410;2023-04-22T00:00:11;100640.81;;;11.56;98.00
52625;BME280;38519;52.540;13.410;2023-04-22T00:02:37;100642.41;;;11.54;97.94
52625;BME280;38519;52.540;13.410;2023-04-22T00:05:03;100635.69;;;11.57;97.54
52625;BME280;38519;52.540;13.410;2023-04-22T00:07:28;100626.59;;;11.52;97.74
52625;BME280;38519;52.540;13.410;2023-04-22T00:09:53;100633.97;;;11.44;98.56
52625;BME280;38519;52.540;13.410;2023-04-22T00:12:19;100623.41;;;11.43;98.08
52625;BME280;38519;52.540;13.410;2023-04-22T00:14:44;100622.34;;;11.41;98.39
52625;BME280;38519;52.540;13.410;2023-04-22T00:17:09;100614.81;;;11.32;98.58
52625;BME280;38519;52.540;13.410;2023-04-22T00:19:35;100612.31;;;11.34;98.56
52625;BME280;38519;52.540;13.410;2023-04-22T00:22:01;100606.13;;;11.33;98.53
52625;BME280;38519;52.540;13.410;2023-04-22T00:24:26;100609.38;;;11.29;98.88
52625;BME280;38519;52.540;13.410;2023-04-22T00:26:52;100601.22;;;11.24;98.68
52625;BME280;38519;52.540;13.410;2023-04-22T00:29:17;100606.13;;;11.20;99.06
52625;BME280;38519;52.540;13.410;2023-04-22T00:31:42;100600.56;;;11.15;99.21
52625;BME280;38519;52.540;13.410;2023-04-22T00:34:07;100600.00;;;11.19;98.88
52625;BME280;38519;52.540;13.410;2023-04-22T00:36:33;100600.09;;;11.21;99.04
52625;BME280;38519;52.540;13.410;2023-04-22T00:38:58;100594.78;;;11.19;98.72
52625;BME280;38519;52.540;13.410;2023-04-22T00:41:23;100598.38;;;11.21;98.68
52625;BME280;38519;52.540;13.410;2023-04-22T00:43:48;100601.28;;;11.13;98.97
52625;BME280;38519;52.540;13.410;2023-04-22T00:46:15;100594.03;;;11.08;99.35
52625;BME280;38519;52.540;13.410;2023-04-22T00:48:40;100591.72;;;11.13;99.45
52625;BME280;38519;52.540;13.410;2023-04-22T00:51:05;100591.72;;;11.13;98.97
52625;BME280;38519;52.540;13.410;2023-04-22T00:53:31;100586.81;;;11.18;98.19
52625;BME280;38519;52.540;13.410;2023-04-22T00:55:56;100592.84;;;11.17;98.54
52625;BME280;38519;52.540;13.410;2023-04-22T00:58:23;100589.91;;;11.12;98.53
52625;BME280;38519;52.540;13.410;2023-04-22T01:00:50;100588.22;;;11.13;98.48
52625;BME280;38519;52.540;13.410;2023-04-22T01:03:15;100582.78;;;11.09;98.91
52625;BME280;38519;52.540;13.410;2023-04-22T01:05:40;100578.56;;;11.11;98.50
52625;BME280;38519;52.540;13.410;2023-04-22T01:08:06;100582.78;;;11.09;98.71
52625;BME280;38519;52.540;13.410;2023-04-22T01:10:31;100576.63;;;11.09;98.68
52625;BME280;38519;52.540;13.410;2023-04-22T01:12:56;100579.97;;;11.06;98.67
52625;BME280;38519;52.540;13.410;2023-04-22T01:15:22;100579.97;;;11.06;98.73
52625;BME280;38519;52.540;13.410;2023-04-22T01:17:47;100580.53;;;11.02;99.16
52625;BME280;38519;52.540;13.410;2023-04-22T01:20:12;100583.16;;;11.02;98.81
52625;BME280;38519;52.540;13.410;2023-04-22T01:22:41;100577.91;;;11.02;99.06
52625;BME280;38519;52.540;13.410;2023-04-22T01:25:08;100574.00;;;10.96;99.25
52625;BME280;38519;52.540;13.410;2023-04-22T01:27:35;100572.56;;;10.87;99.71
52625;BME280;38519;52.540;13.410;2023-04-22T01:30:00;100576.81;;;10.99;99.07
52625;BME280;38519;52.540;13.410;2023-04-22T01:32:25;100572.78;;;10.90;99.90
52625;BME280;38519;52.540;13.410;2023-04-22T01:34:51;100569.84;;;10.86;99.89
52625;BME280;38519;52.540;13.410;2023-04-22T01:37:16;100571.75;;;10.88;99.43
52625;BME280;38519;52.540;13.410;2023-04-22T01:39:42;100572.13;;;10.81;100.00
52625;BME280;38519;52.540;13.410;2023-04-22T01:42:07;100562.38;;;10.79;100.00
52625;BME280;38519;52.540;13.410;2023-04-22T01:44:32;100571.38;;;10.70;100.00
52625;BME280;38519;52.540;13.410;2023-04-22T01:46:57;100567.06;;;10.71;100.00
52625;BME280;38519;52.540;13.410;2023-04-22T01:49:23;100560.63;;;10.66;100.00
52625;BME280;38519;52.540;13.410;2023-04-22T01:51:48;100554.16;;;10.61;100.00
52625;BME280;38519;52.540;13.410;2023-04-22T01:54:13;100552.47;;;10.61;100.00
52625;BME280;38519;52.540;13.410;2023-04-22T01:56:40;100554.97;;;10.60;100.00
52625;BME280;38519;52.540;13.410;2023-04-22T01:59:06;100552.03;;;10.55;100.00
52625;BME280;38519;52.540;13.410;2023-04-22T02:01:31;100551.72;;;10.50;100.00
52625;BME280;38519;52.540;13.410;2023-04-22T02:03:56;100547.28;;;10.49;100.00
52625;BME280;38519;52.540;13.410;2023-04-22T02:06:22;100538.44;;;10.47;100.00
52625;BME280;38519;52.540;13.410;2023-04-22T02:08:47;100536.50;;;10.45;100.00
52625;BME280;38519;52.540;13.410;2023-04-22T02:11:12;100539.56;;;10.51;100.00
52625;BME280;38519;52.540;13.410;2023-04-22T02:13:38;100536.84;;;10.49;100.00
52625;BME280;38519;52.540;13.410;2023-04-22T02:16:04;100535.03;;;10.48;100.00
52625;BME280;38519;52.540;13.410;2023-04-22T02:18:29;100538.44;;;10.47;100.00
52625;BME280;38519;52.540;13.410;2023-04-22T02:20:55;100532.00;;;10.42;100.00
52625;BME280;38519;52.540;13.410;2023-04-22T02:23:21;100531.16;;;10.43;100.00
52625;BME280;38519;52.540;13.410;2023-04-22T02:25:50;100527.22;;;10.36;100.00
52625;BME280;38519;52.540;13.410;2023-04-22T02:28:16;100521.91;;;10.35;100.00
52625;BME280;38519;52.540;13.410;2023-04-22T02:30:41;100523.03;;;10.38;100.00
52625;BME280;38519;52.540;13.410;2023-04-22T02:33:06;100520.50;;;10.40;100.00
52625;BME280;38519;52.540;13.410;2023-04-22T02:35:32;100520.72;;;10.43;100.00
52625;BME280;38519;52.540;13.410;2023-04-22T02:37:57;100509.06;;;10.38;100.00
52625;BME280;38519;52.540;13.410;2023-04-22T02:40:23;100513.50;;;10.39;100.00
52625;BME280;38519;52.540;13.410;2023-04-22T02:42:49;100512.38;;;10.35;100.00
52625;BME280;38519;52.540;13.410;2023-04-22T02:45:14;100504.97;;;10.30;100.00
52625;BME280;38519;52.540;13.410;2023-04-22T02:47:40;100503.75;;;10.25;100.00
52625;BME280;38519;52.540;13.410;2023-04-22T02:50:05;100508.66;;;10.20;100.00
52625;BME280;38519;52.540;13.410;2023-04-22T02:52:32;100494.06;;;10.10;100.00
52625;BME280;38519;52.540;13.410;2023-04-22T02:54:57;100506.50;;;10.14;100.00
52625;BME280;38519;52.540;13.410;2023-04-22T02:57:22;100506.19;;;10.10;100.00
52625;BME280;38519;52.540;13.410;2023-04-22T02:59:47;100502.44;;;10.06;100.00
52625;BME280;38519;52.540;13.410;2023-04-22T03:02:12;100502.53;;;10.08;100.00
52625;BME280;38519;52.540;13.410;2023-04-22T03:04:38;100506.31;;;9.99;100.00
52625;BME280;38519;52.540;13.410;2023-04-22T03:07:03;100507.81;;;9.96;100.00
52625;BME280;38519;52.540;13.410;2023-04-22T03:09:28;100502.59;;;9.96;100.00
52625;BME280;38519;52.540;13.410;2023-04-22T03:11:54;100502.38;;;9.93;100.00
52625;BME280;38519;52.540;13.410;2023-04-22T03:14:19;100497.53;;;9.86;100.00
52625;BME280;38519;52.540;13.410;2023-04-22T03:16:44;100496.03;;;9.89;100.00
52625;BME280;38519;52.540;13.410;2023-04-22T03:19:10;100498.41;;;9.86;100.00
52625;BME280;38519;52.540;13.410;2023-04-22T03:21:35;100503.63;;;9.86;100.00
52625;BME280;38519;52.540;13.410;2023-04-22T03:24:00;100496.38;;;9.82;100.00
52625;BME280;38519;52.540;13.410;2023-04-22T03:26:25;100498.53;;;9.76;100.00
52625;BME280;38519;52.540;13.410;2023-04-22T03:28:50;100499.00;;;9.70;100.00
52625;BME280;38519;52.540;13.410;2023-04-22T03:31:16;100498.41;;;9.74;100.00
52625;BME280;38519;52.540;13.410;2023-04-22T03:33:41;100492.91;;;9.70;100.00
52625;BME280;38519;52.540;13.410;2023-04-22T03:36:06;100498.00;;;9.68;100.00
52625;BME280;38519;52.540;13.410;2023-04-22T03:38:31;100496.63;;;9.61;100.00
52625;BME280;38519;52.540;13.410;2023-04-22T03:40:57;100500.03;;;9.60;100.00
52625;BME280;38519;52.540;13.410;2023-04-22T03:43:22;100498.81;;;9.55;100.00
52625;BME280;38519;52.540;13.410;2023-04-22T03:45:49;100506.06;;;9.47;100.00
52625;BME280;38519;52.540;13.410;2023-04-22T03:48:14;100513.88;;;9.47;100.00
52625;BME280;38519;52.540;13.410;2023-04-22T03:50:40;100505.03;;;9.45;100.00
52625;BME280;38519;52.540;13.410;2023-04-22T03:53:05;100510.25;;;9.45;100.00
52625;BME280;38519;52.540;13.410;2023-04-22T03:55:30;100504.00;;;9.43;100.00
52625;BME280;38519;52.540;13.410;2023-04-22T03:57:55;100507.19;;;9.39;100.00
52625;BME280;38519;52.540;13.410;2023-04-22T04:00:21;100499.38;;;9.39;100.00
52625;BME280;38519;52.540;13.410;2023-04-22T04:02:46;100503.00;;;9.41;100.00
52625;BME280;38519;52.540;13.410;2023-04-22T04:05:11;100506.59;;;9.43;100.00
52625;BME280;38519;52.540;13.410;2023-04-22T04:07:36;100504.69;;;9.41;100.00
52625;BME280;38519;52.540;13.410;2023-04-22T04:10:02;100501.88;;;9.38;100.00
52625;BME280;38519;52.540;13.410;2023-04-22T04:12:27;100502.75;;;9.38;100.00
52625;BME280;38519;52.540;13.410;2023-04-22T04:14:54;100500.75;;;9.34;100.00
52625;BME280;38519;52.540;13.410;2023-04-22T04:17:19;100499.91;;;9.35;100.00
52625;BME280;38519;52.540;13.410;2023-04-22T04:19:45;100504.91;;;9.32;100.00
52625;BME280;38519;52.540;13.410;2023-04-22T04:22:10;100509.09;;;9.30;100.00
52625;BME280;38519;52.540;13.410;2023-04-22T04:24:35;100514.31;;;9.30;100.00
52625;BME280;38519;52.540;13.410;2023-04-22T04:27:01;100497.56;;;9.26;100.00
52625;BME280;38519;52.540;13.410;2023-04-22T04:29:27;100506.81;;;9.23;100.00
52625;BME280;38519;52.540;13.410;2023-04-22T04:31:52;100500.81;;;9.24;100.00
52625;BME280;38519;52.540;13.410;2023-04-22T04:34:17;100503.31;;;9.22;100.00
52625;BME280;38519;52.540;13.410;2023-04-22T04:36:43;100499.59;;;9.19;100.00
52625;BME280;38519;52.540;13.410;2023-04-22T04:39:10;100497.63;;;9.16;100.00
52625;BME280;38519;52.540;13.410;2023-04-22T04:41:35;100499.47;;;9.17;100.00
52625;BME280;38519;52.540;13.410;2023-04-22T04:44:02;100498.56;;;9.17;100.00
52625;BME280;38519;52.540;13.410;2023-04-22T04:46:27;100502.06;;;9.17;100.00
52625;BME280;38519;52.540;13.410;2023-04-22T04:48:53;100498.69;;;9.18;100.00
52625;BME280;38519;52.540;13.410;2023-04-22T04:51:19;100509.66;;;9.14;100.00
52625;BME280;38519;52.540;13.410;2023-04-22T04:53:44;100504.69;;;9.17;100.00
52625;BME280;38519;52.540;13.410;2023-04-22T04:56:09;100505.56;;;9.18;100.00
52625;BME280;38519;52.540;13.410;2023-04-22T04:58:34;100509.34;;;9.21;100.00
52625;BME280;38519;52.540;13.410;2023-04-22T05:01:00;100494.38;;;9.19;100.00
52625;BME280;38519;52.540;13.410;2023-04-22T05:03:25;100501.59;;;9.23;100.00
52625;BME280;38519;52.540;13.410;2023-04-22T05:05:50;100508.63;;;9.24;100.00
52625;BME280;38519;52.540;13.410;2023-04-22T05:08:15;100498.34;;;9.25;100.00
52625;BME280;38519;52.540;13.410;2023-04-22T05:10:41;100508.63;;;9.24;100.00
52625;BME280;38519;52.540;13.410;2023-04-22T05:16:00;100505.25;;;9.25;100.00
52625;BME280;38519;52.540;13.410;2023-04-22T05:18:25;100497.56;;;9.26;100.00
52625;BME280;38519;52.540;13.410;2023-04-22T05:20:51;100503.00;;;9.29;100.00
52625;BME280;38519;52.540;13.410;2023-04-22T05:23:16;100505.94;;;9.34;100.00
52625;BME280;38519;52.540;13.410;2023-04-22T05:25:41;100497.44;;;9.37;100.00
52625;BME280;38519;52.540;13.410;2023-04-22T05:28:07;100500.16;;;9.38;100.00
52625;BME280;38519;52.540;13.410;2023-04-22T05:30:32;100505.72;;;9.43;100.00
52625;BME280;38519;52.540;13.410;2023-04-22T05:32:57;100504.34;;;9.48;100.00
52625;BME280;38519;52.540;13.410;2023-04-22T05:35:22;100504.91;;;9.56;100.00
52625;BME280;38519;52.540;13.410;2023-04-22T05:37:48;100501.63;;;9.58;100.00
52625;BME280;38519;52.540;13.410;2023-04-22T05:40:13;100504.44;;;9.61;100.00
52625;BME280;38519;52.540;13.410;2023-04-22T05:42:38;100507.50;;;9.68;100.00
52625;BME280;38519;52.540;13.410;2023-04-22T05:45:03;100500.72;;;9.70;100.00
52625;BME280;38519;52.540;13.410;2023-04-22T05:47:29;100504.44;;;9.73;100.00
52625;BME280;38519;52.540;13.410;2023-04-22T05:49:54;100502.19;;;9.78;100.00
52625;BME280;38519;52.540;13.410;2023-04-22T05:52:20;100504.19;;;9.82;100.00
52625;BME280;38519;52.540;13.410;2023-04-22T05:54:45;100514.19;;;9.88;100.00
52625;BME280;38519;52.540;13.410;2023-04-22T05:57:10;100498.75;;;9.91;100.00
52625;BME280;38519;52.540;13.410;2023-04-22T05:59:35;100503.16;;;9.92;100.00
52625;BME280;38519;52.540;13.410;2023-04-22T06:02:00;100506.09;;;9.96;100.00
52625;BME280;38519;52.540;13.410;2023-04-22T06:04:26;100507.44;;;10.03;100.00
52625;BME280;38519;52.540;13.410;2023-04-22T06:06:51;100505.88;;;10.05;100.00
52625;BME280;38519;52.540;13.410;2023-04-22T06:09:18;100502.44;;;10.06;100.00
52625;BME280;38519;52.540;13.410;2023-04-22T06:11:43;100501.19;;;10.13;100.00
52625;BME280;38519;52.540;13.410;2023-04-22T06:14:08;100505.16;;;10.19;100.00
52625;BME280;38519;52.540;13.410;2023-04-22T06:16:34;100507.47;;;10.28;100.00
52625;BME280;38519;52.540;13.410;2023-04-22T06:18:59;100500.91;;;10.33;100.00
52625;BME280;38519;52.540;13.410;2023-04-22T06:21:24;100510.91;;;10.39;100.00
52625;BME280;38519;52.540;13.410;2023-04-22T06:23:49;100511.22;;;10.44;100.00
52625;BME280;38519;52.540;13.410;2023-04-22T06:26:15;100512.56;;;10.50;100.00
52625;BME280;38519;52.540;13.410;2023-04-22T06:28:41;100515.81;;;10.60;100.00
52625;BME280;38519;52.540;13.410;2023-04-22T06:31:06;100518.25;;;10.70;100.00
52625;BME280;38519;52.540;13.410;2023-04-22T06:33:31;100514.94;;;10.72;100.00
52625;BME280;38519;52.540;13.410;2023-04-22T06:35:58;100520.78;;;10.82;100.00
52625;BME280;38519;52.540;13.410;2023-04-22T06:38:25;100523.91;;;10.89;100.00
52625;BME280;38519;52.540;13.410;2023-04-22T06:40:50;100511.38;;;10.97;100.00
52625;BME280;38519;52.540;13.410;2023-04-22T06:43:16;100512.34;;;11.11;100.00
52625;BME280;38519;52.540;13.410;2023-04-22T06:45:41;100507.63;;;11.32;100.00
52625;BME280;38519;52.540;13.410;2023-04-22T06:48:06;100509.41;;;11.73;99.82
52625;BME280;38519;52.540;13.410;2023-04-22T06:50:33;100506.31;;;12.06;98.30
52625;BME280;38519;52.540;13.410;2023-04-22T06:52:58;100496.78;;;11.93;98.03
52625;BME280;38519;52.540;13.410;2023-04-22T06:55:23;100498.38;;;12.04;97.33
52625;BME280;38519;52.540;13.410;2023-04-22T06:57:49;100508.50;;;12.13;97.31
52625;BME280;38519;52.540;13.410;2023-04-22T07:00:17;100507.13;;;11.91;98.11
52625;BME280;38519;52.540;13.410;2023-04-22T07:02:42;100509.34;;;11.98;97.98
52625;BME280;38519;52.540;13.410;2023-04-22T07:05:07;100508.53;;;11.99;97.72
52625;BME280;38519;52.540;13.410;2023-04-22T07:07:33;100495.03;;;12.07;97.34
52625;BME280;38519;52.540;13.410;2023-04-22T07:09:58;100500.25;;;12.20;97.54
52625;BME280;38519;52.540;13.410;2023-04-22T07:12:23;100502.81;;;12.33;96.81
52625;BME280;38519;52.540;13.410;2023-04-22T07:14:51;100497.41;;;12.45;96.42
52625;BME280;38519;52.540;13.410;2023-04-22T07:17:17;100505.34;;;12.60;95.81
52625;BME280;38519;52.540;13.410;2023-04-22T07:19:46;100501.56;;;12.70;95.24
52625;BME280;38519;52.540;13.410;2023-04-22T07:22:11;100500.69;;;12.84;94.05
52625;BME280;38519;52.540;13.410;2023-04-22T07:24:36;100505.22;;;13.02;93.90
52625;BME280;38519;52.540;13.410;2023-04-22T07:27:02;100507.38;;;13.24;92.61
52625;BME280;38519;52.540;13.410;2023-04-22T07:29:27;100505.41;;;13.35;92.36
52625;BME280;38519;52.540;13.410;2023-04-22T07:31:53;100503.25;;;13.42;91.29
52625;BME280;38519;52.540;13.410;2023-04-22T07:34:18;100499.25;;;13.49;91.96
52625;BME280;38519;52.540;13.410;2023-04-22T07:36:43;100505.03;;;13.58;91.19
52625;BME280;38519;52.540;13.410;2023-04-22T07:39:08;100499.69;;;13.57;91.64
52625;BME280;38519;52.540;13.410;2023-04-22T07:41:34;100504.81;;;13.70;91.07
52625;BME280;38519;52.540;13.410;2023-04-22T07:43:59;100500.72;;;13.75;90.72
52625;BME280;38519;52.540;13.410;2023-04-22T07:46:25;100503.88;;;13.84;90.10
52625;BME280;38519;52.540;13.410;2023-04-22T07:48:50;100502.91;;;13.82;89.87
52625;BME280;38519;52.540;13.410;2023-04-22T07:51:15;100499.31;;;13.97;89.87
52625;BME280;38519;52.540;13.410;2023-04-22T07:53:41;100496.03;;;14.01;89.86
52625;BME280;38519;52.540;13.410;2023-04-22T07:56:06;100496.00;;;14.16;89.53
52625;BME280;38519;52.540;13.410;2023-04-22T07:58:31;100497.47;;;14.27;88.31
52625;BME280;38519;52.540;13.410;2023-04-22T08:00:56;100490.56;;;14.46;88.33
52625;BME280;38519;52.540;13.410;2023-04-22T08:03:22;100483.81;;;14.66;87.89
52625;BME280;38519;52.540;13.410;2023-04-22T08:05:48;100478.38;;;14.63;88.03
52625;BME280;38519;52.540;13.410;2023-04-22T08:08:13;100479.59;;;14.69;87.42
52625;BME280;38519;52.540;13.410;2023-04-22T08:10:39;100475.25;;;14.70;87.51
52625;BME280;38519;52.540;13.410;2023-04-22T08:13:04;100479.00;;;14.75;87.22
52625;BME280;38519;52.540;13.410;2023-04-22T08:15:30;100470.47;;;14.79;86.51
52625;BME280;38519;52.540;13.410;2023-04-22T08:17:55;100461.25;;;14.87;87.31
52625;BME280;38519;52.540;13.410;2023-04-22T08:20:20;100464.16;;;15.10;86.56
52625;BME280;38519;52.540;13.410;2023-04-22T08:22:45;100461.03;;;15.17;86.07
52625;BME280;38519;52.540;13.410;2023-04-22T08:25:11;100465.09;;;15.28;85.17
52625;BME280;38519;52.540;13.410;2023-04-22T08:27:37;100460.06;;;15.33;85.28
52625;BME280;38519;52.540;13.410;2023-04-22T08:30:02;100463.13;;;15.60;84.03
52625;BME280;38519;52.540;13.410;2023-04-22T08:32:28;100455.09;;;15.57;83.74
52625;BME280;38519;52.540;13.410;2023-04-22T08:34:54;100454.38;;;15.78;84.31
52625;BME280;38519;52.540;13.410;2023-04-22T08:37:19;100454.78;;;15.87;83.25
52625;BME280;38519;52.540;13.410;2023-04-22T08:39:45;100449.75;;;16.11;82.98
52625;BME280;38519;52.540;13.410;2023-04-22T08:42:10;100453.69;;;16.01;83.95
52625;BME280;38519;52.540;13.410;2023-04-22T08:44:36;100459.13;;;16.24;82.54
52625;BME280;38519;52.540;13.410;2023-04-22T08:47:02;100460.28;;;16.11;82.46
52625;BME280;38519;52.540;13.410;2023-04-22T08:49:28;100461.22;;;16.31;82.25
52625;BME280;38519;52.540;13.410;2023-04-22T08:51:54;100454.97;;;16.29;82.24
52625;BME280;38519;52.540;13.410;2023-04-22T08:54:20;100449.97;;;16.35;81.43
52625;BME280;38519;52.540;13.410;2023-04-22T08:56:47;100456.34;;;16.60;81.20
52625;BME280;38519;52.540;13.410;2023-04-22T08:59:13;100461.19;;;16.70;80.89
52625;BME280;38519;52.540;13.410;2023-04-22T09:01:40;100453.56;;;16.77;80.58
52625;BME280;38519;52.540;13.410;2023-04-22T09:04:06;100460.34;;;16.91;80.48
52625;BME280;38519;52.540;13.410;2023-04-22T09:06:33;100455.22;;;16.94;80.31
52625;BME280;38519;52.540;13.410;2023-04-22T09:08:58;100456.84;;;17.11;80.25
52625;BME280;38519;52.540;13.410;2023-04-22T09:11:28;100446.56;;;17.18;79.82
52625;BME280;38519;52.540;13.410;2023-04-22T09:13:54;100447.09;;;17.32;79.68
52625;BME280;38519;52.540;13.410;2023-04-22T09:16:19;100447.22;;;17.35;79.36
52625;BME280;38519;52.540;13.410;2023-04-22T09:18:44;100441.00;;;17.33;79.13
52625;BME280;38519;52.540;13.410;2023-04-22T09:21:10;100443.69;;;17.34;79.71
52625;BME280;38519;52.540;13.410;2023-04-22T09:23:45;100443.78;;;17.58;78.52
52625;BME280;38519;52.540;13.410;2023-04-22T09:26:11;100439.25;;;17.77;78.61
52625;BME280;38519;52.540;13.410;2023-04-22T09:28:36;100437.88;;;17.87;78.52
52625;BME280;38519;52.540;13.410;2023-04-22T09:31:01;100442.19;;;17.84;78.05
52625;BME280;38519;52.540;13.410;2023-04-22T09:33:27;100430.25;;;17.94;77.37
52625;BME280;38519;52.540;13.410;2023-04-22T09:35:52;100428.97;;;18.07;77.08
52625;BME280;38519;52.540;13.410;2023-04-22T09:38:18;100427.75;;;18.22;77.05
52625;BME280;38519;52.540;13.410;2023-04-22T09:40:44;100428.66;;;17.98;77.35
52625;BME280;38519;52.540;13.410;2023-04-22T09:43:10;100429.69;;;18.26;76.85
52625;BME280;38519;52.540;13.410;2023-04-22T09:48:08;100413.94;;;18.29;76.16
52625;BME280;38519;52.540;13.410;2023-04-22T09:50:34;100412.38;;;18.34;76.67
52625;BME280;38519;52.540;13.410;2023-04-22T09:53:00;100414.00;;;18.54;76.04
52625;BME280;38519;52.540;13.410;2023-04-22T09:55:26;100407.34;;;18.66;75.93
52625;BME280;38519;52.540;13.410;2023-04-22T09:57:55;100405.47;;;18.63;75.70
52625;BME280;38519;52.540;13.410;2023-04-22T10:00:22;100394.44;;;18.75;75.55
52625;BME280;38519;52.540;13.410;2023-04-22T10:02:47;100392.75;;;18.77;75.46
52625;BME280;38519;52.540;13.410;2023-04-22T10:05:12;100398.19;;;18.82;74.82
52625;BME280;38519;52.540;13.410;2023-04-22T10:07:40;100398.69;;;18.96;74.68
52625;BME280;38519;52.540;13.410;2023-04-22T10:10:07;100385.59;;;19.00;74.19
52625;BME280;38519;52.540;13.410;2023-04-22T10:12:33;100398.59;;;18.92;74.18
52625;BME280;38519;52.540;13.410;2023-04-22T10:14:58;100389.44;;;19.08;74.15
52625;BME280;38519;52.540;13.410;2023-04-22T10:17:24;100390.41;;;18.85;74.74
52625;BME280;38519;52.540;13.410;2023-04-22T10:19:50;100381.28;;;19.02;74.08
52625;BME280;38519;52.540;13.410;2023-04-22T10:22:16;100374.44;;;19.09;74.65
52625;BME280;38519;52.540;13.410;2023-04-22T10:24:41;100376.72;;;19.25;73.73
52625;BME280;38519;52.540;13.410;2023-04-22T10:27:08;100369.81;;;19.31;73.09
52625;BME280;38519;52.540;13.410;2023-04-22T10:29:35;100358.66;;;19.39;73.39
52625;BME280;38519;52.540;13.410;2023-04-22T10:32:03;100353.84;;;19.27;73.46
52625;BME280;38519;52.540;13.410;2023-04-22T10:34:30;100362.81;;;19.31;73.24
52625;BME280;38519;52.540;13.410;2023-04-22T10:39:33;100360.88;;;19.54;71.67
52625;BME280;38519;52.540;13.410;2023-04-22T10:44:28;100351.69;;;19.72;70.85
52625;BME280;38519;52.540;13.410;2023-04-22T10:46:57;100348.53;;;19.83;71.25
52625;BME280;38519;52.540;13.410;2023-04-22T10:49:23;100351.44;;;19.93;71.18
52625;BME280;38519;52.540;13.410;2023-04-22T10:51:53;100336.09;;;20.11;70.50
52625;BME280;38519;52.540;13.410;2023-04-22T10:57:09;100347.78;;;19.88;71.00
52625;BME280;38519;52.540;13.410;2023-04-22T10:59:57;100343.69;;;19.99;70.49
52625;BME280;38519;52.540;13.410;2023-04-22T11:02:21;100332.03;;;20.24;70.29
52625;BME280;38519;52.540;13.410;2023-04-22T11:04:46;100333.97;;;20.31;70.14
52625;BME280;38519;52.540;13.410;2023-04-22T11:07:13;100338.75;;;20.45;69.84
52625;BME280;38519;52.540;13.410;2023-04-22T11:09:39;100325.66;;;20.51;69.24
52625;BME280;38519;52.540;13.410;2023-04-22T11:14:49;100323.78;;;20.47;70.05
52625;BME280;38519;52.540;13.410;2023-04-22T11:17:14;100322.41;;;20.61;69.65
52625;BME280;38519;52.540;13.410;2023-04-22T11:19:39;100323.84;;;20.48;69.95
52625;BME280;38519;52.540;13.410;2023-04-22T11:22:05;100327.09;;;20.71;69.15
52625;BME280;38519;52.540;13.410;2023-04-22T11:24:30;100312.22;;;20.78;68.73
52625;BME280;38519;52.540;13.410;2023-04-22T11:26:55;100322.31;;;20.91;68.46
52625;BME280;38519;52.540;13.410;2023-04-22T11:29:21;100318.09;;;20.65;68.99
52625;BME280;38519;52.540;13.410;2023-04-22T11:31:47;100311.78;;;20.61;68.70
52625;BME280;38519;52.540;13.410;2023-04-22T11:34:12;100311.94;;;20.66;68.25
52625;BME280;38519;52.540;13.410;2023-04-22T11:36:39;100311.78;;;20.61;68.57
52625;BME280;38519;52.540;13.410;2023-04-22T11:39:09;100321.13;;;20.80;67.99
52625;BME280;38519;52.540;13.410;2023-04-22T11:41:42;100318.34;;;21.12;67.50
52625;BME280;38519;52.540;13.410;2023-04-22T11:44:07;100318.31;;;21.10;67.38
52625;BME280;38519;52.540;13.410;2023-04-22T11:46:32;100308.72;;;21.16;66.93
52625;BME280;38519;52.540;13.410;2023-04-22T11:49:13;100306.44;;;20.95;68.26
52625;BME280;38519;52.540;13.410;2023-04-22T11:51:52;100303.22;;;20.71;69.07
52625;BME280;38519;52.540;13.410;2023-04-22T11:54:27;100296.16;;;21.08;68.64
52625;BME280;38519;52.540;13.410;2023-04-22T11:56:53;100300.38;;;21.00;68.29
52625;BME280;38519;52.540;13.410;2023-04-22T11:59:18;100288.34;;;20.78;68.25
52625;BME280;38519;52.540;13.410;2023-04-22T12:01:45;100294.50;;;21.14;68.00
52625;BME280;38519;52.540;13.410;2023-04-22T12:04:10;100298.06;;;21.14;67.17
52625;BME280;38519;52.540;13.410;2023-04-22T12:06:36;100295.88;;;21.36;66.83
52625;BME280;38519;52.540;13.410;2023-04-22T12:09:06;100288.78;;;20.95;68.43
52625;BME280;38519;52.540;13.410;2023-04-22T12:11:31;100292.28;;;20.94;68.78
52625;BME280;38519;52.540;13.410;2023-04-22T12:13:56;100291.50;;;20.98;68.75
52625;BME280;38519;52.540;13.410;2023-04-22T12:16:29;100285.44;;;21.43;68.04
52625;BME280;38519;52.540;13.410;2023-04-22T12:19:03;100282.25;;;21.19;68.65
52625;BME280;38519;52.540;13.410;2023-04-22T12:21:28;100279.81;;;21.29;68.28
52625;BME280;38519;52.540;13.410;2023-04-22T12:23:58;100277.06;;;21.64;68.12
52625;BME280;38519;52.540;13.410;2023-04-22T12:26:23;100276.75;;;21.51;66.96
52625;BME280;38519;52.540;13.410;2023-04-22T12:28:50;100276.66;;;21.47;67.67
52625;BME280;38519;52.540;13.410;2023-04-22T12:31:16;100267.88;;;21.49;68.00
52625;BME280;38519;52.540;13.410;2023-04-22T12:33:42;100269.97;;;21.65;67.46
52625;BME280;38519;52.540;13.410;2023-04-22T12:36:09;100276.75;;;21.51;67.68
52625;BME280;38519;52.540;13.410;2023-04-22T12:38:35;100275.56;;;21.77;67.35
52625;BME280;38519;52.540;13.410;2023-04-22T12:41:00;100266.84;;;21.85;66.67
52625;BME280;38519;52.540;13.410;2023-04-22T12:43:26;100277.84;;;22.52;66.54
52625;BME280;38519;52.540;13.410;2023-04-22T12:45:51;100271.09;;;22.72;65.38